San Antonio, Texas
Traffic Map
Current Weather Conditions
San Antonio, Texas
Few Clouds
Few Clouds
17°
Feels Like: 17°
Wind Chill: 17° Ceiling: Unl
Heat Index: 17° Visibility: 10mi
Dew Point: 11° Wind: 3mph
Humidity: 71% Direction: 350° (N)
Pressure: 30.07in Gusts: 0mph
Raw Report DataKSKF 221258Z AUTO 35003KT 10SM FEW170 17/11 A3007 RMK AO2 SLP178 T01660113 $
Traffic Incident Summary
Active as of:
Severity:
Category:
InformationThere was an issue retrieving the traffic information for this location. Please try a different location or try again shortly.
Advertisements
Track Severe Weather on mobile